Time;durP1;ratioP1;P1;durP2;ratioP2;P2;SDS_P1;SDS_P2;PMS_P1;PMS_P2;Temp;Humidity;BMP_temperature;BMP_pressure;BME280_temperature;BME280_humidity;BME280_pressure;Samples;Min_cycle;Max_cycle;Signal;HPM_P1;HPM_P2
2022/06/05 00:01:20;;;;;;;16.38;11.25;;;11.90;99.90;;;;;;4942417;29;20628;-58
2022/06/05 00:04:00;;;;;;;20.80;12.70;;;11.80;99.90;;;;;;4959972;29;20059;-58
2022/06/05 00:06:35;;;;;;;17.50;11.02;;;11.80;99.90;;;;;;4961394;29;20055;-58
2022/06/05 00:09:30;;;;;;;18.00;11.43;;;11.80;99.90;;;;;;4941896;29;20520;-59
2022/06/05 00:12:07;;;;;;;22.08;13.38;;;11.80;99.90;;;;;;4961492;28;20405;-58
2022/06/05 00:14:37;;;;;;;18.67;11.60;;;11.70;99.90;;;;;;4964191;29;20039;-58
2022/06/05 00:17:09;;;;;;;20.75;13.07;;;11.70;99.90;;;;;;4962690;29;20115;-57
2022/06/05 00:19:40;;;;;;;19.50;12.65;;;11.70;99.90;;;;;;4965010;29;20058;-57
2022/06/05 00:22:06;;;;;;;18.13;11.80;;;11.70;99.90;;;;;;4962914;29;20047;-58
2022/06/05 00:24:33;;;;;;;22.88;12.93;;;11.70;99.90;;;;;;4964652;29;20496;-58
2022/06/05 00:27:08;;;;;;;20.45;11.48;;;11.70;99.90;;;;;;4930699;29;20122;-58
2022/06/05 00:30:12;;;;;;;20.80;12.55;;;11.70;99.90;;;;;;4945684;29;20076;-58
2022/06/05 00:32:56;;;;;;;17.70;12.18;;;11.70;99.90;;;;;;4960817;29;20055;-59
2022/06/05 00:35:22;;;;;;;19.38;12.13;;;11.60;99.90;;;;;;4944156;29;20071;-57
2022/06/05 00:38:15;;;;;;;16.50;11.15;;;11.60;99.90;;;;;;4927190;29;20047;-58
2022/06/05 00:41:02;;;;;;;18.63;10.95;;;11.50;99.90;;;;;;4970586;28;20054;-58
2022/06/05 00:43:28;;;;;;;18.27;12.02;;;11.60;99.90;;;;;;4964435;28;20106;-59
2022/06/05 00:45:57;;;;;;;22.58;13.05;;;11.60;99.90;;;;;;4966208;28;20089;-58
2022/06/05 00:48:24;;;;;;;22.75;12.32;;;11.50;99.90;;;;;;4978947;28;20054;-57
2022/06/05 00:50:50;;;;;;;21.27;12.52;;;11.50;99.90;;;;;;4926840;29;20071;-57
2022/06/05 00:53:16;;;;;;;16.58;12.00;;;11.50;99.90;;;;;;4945146;29;20118;-57
2022/06/05 00:55:49;;;;;;;20.00;13.25;;;11.50;99.90;;;;;;4943006;29;20048;-58
2022/06/05 00:58:16;;;;;;;20.40;12.02;;;11.50;99.90;;;;;;4963831;29;20090;-58
2022/06/05 01:00:47;;;;;;;18.65;12.13;;;11.50;99.90;;;;;;4962036;29;20055;-57
2022/06/05 01:03:13;;;;;;;19.38;12.25;;;11.50;99.90;;;;;;4933796;29;20047;-58
2022/06/05 01:05:39;;;;;;;20.33;11.40;;;11.40;99.90;;;;;;4951549;29;20059;-58
2022/06/05 01:08:06;;;;;;;18.90;10.73;;;11.40;99.90;;;;;;4962589;29;20070;-57
2022/06/05 01:10:41;;;;;;;20.25;11.60;;;11.40;99.90;;;;;;4962558;29;20083;-58
2022/06/05 01:13:25;;;;;;;18.38;12.20;;;11.40;99.90;;;;;;4956725;29;20529;-58
2022/06/05 01:16:00;;;;;;;18.35;11.75;;;11.30;99.90;;;;;;4950117;29;20439;-58
2022/06/05 01:18:43;;;;;;;19.15;11.45;;;11.30;99.90;;;;;;4945009;29;20043;-58
2022/06/05 01:21:22;;;;;;;14.35;9.68;;;11.30;99.90;;;;;;4942756;29;20062;-58
2022/06/05 01:24:00;;;;;;;15.95;11.30;;;11.30;99.90;;;;;;4929252;29;20079;-58
2022/06/05 01:27:00;;;;;;;19.48;11.88;;;11.20;99.90;;;;;;4962025;29;20050;-57
2022/06/05 01:29:33;;;;;;;15.48;10.05;;;11.30;99.90;;;;;;4945024;29;20129;-58
2022/06/05 01:32:14;;;;;;;17.30;11.15;;;11.20;99.90;;;;;;4963032;29;20093;-57
2022/06/05 01:34:53;;;;;;;18.23;11.60;;;11.30;99.90;;;;;;4946249;29;20043;-58
2022/06/05 01:37:26;;;;;;;22.20;11.57;;;11.20;99.90;;;;;;4946262;29;20426;-58
2022/06/05 01:40:02;;;;;;;19.30;11.18;;;11.30;99.90;;;;;;4955594;28;20042;-58
2022/06/05 01:42:57;;;;;;;18.15;11.15;;;11.30;99.90;;;;;;4978947;28;20540;-58
2022/06/05 01:46:04;;;;;;;16.27;10.73;;;11.30;99.90;;;;;;4954158;29;20039;-58
2022/06/05 01:48:36;;;;;;;19.58;10.68;;;11.30;99.90;;;;;;4911380;29;20051;-58
2022/06/05 01:51:06;;;;;;;16.67;11.10;;;11.30;99.90;;;;;;4958204;29;20039;-58
2022/06/05 01:53:45;;;;;;;17.13;11.90;;;11.40;99.90;;;;;;4960456;29;20036;-58
2022/06/05 01:56:16;;;;;;;17.90;11.30;;;11.30;99.90;;;;;;4951658;29;20066;-58
2022/06/05 01:59:01;;;;;;;17.03;10.67;;;11.40;99.90;;;;;;4943786;29;20039;-57
2022/06/05 02:01:36;;;;;;;18.00;11.35;;;11.40;99.90;;;;;;4946713;29;20047;-57
2022/06/05 02:04:22;;;;;;;16.85;10.93;;;11.40;99.90;;;;;;4961026;29;20294;-57
2022/06/05 02:07:10;;;;;;;20.65;11.40;;;11.90;99.90;;;;;;4962293;29;20052;-57
2022/06/05 02:09:44;;;;;;;18.63;11.05;;;11.40;99.90;;;;;;4961252;29;20075;-58
2022/06/05 02:12:10;;;;;;;19.73;11.00;;;11.40;99.90;;;;;;4955679;29;20042;-58
2022/06/05 02:14:37;;;;;;;19.17;11.43;;;11.40;99.90;;;;;;4943541;29;20051;-57
2022/06/05 02:17:05;;;;;;;19.52;12.13;;;11.40;99.90;;;;;;4941346;29;20079;-57
2022/06/05 02:19:33;;;;;;;21.25;12.18;;;11.40;99.90;;;;;;4943650;29;20119;-58
2022/06/05 02:22:04;;;;;;;24.58;12.90;;;11.40;99.90;;;;;;4951808;29;20040;-58
2022/06/05 02:24:31;;;;;;;20.08;11.63;;;11.40;99.90;;;;;;4951760;29;20075;-58
2022/06/05 02:26:59;;;;;;;21.85;12.00;;;11.40;99.90;;;;;;4951053;29;20046;-57
2022/06/05 02:29:26;;;;;;;21.00;12.32;;;11.40;99.90;;;;;;4954725;29;20040;-59
2022/06/05 02:31:58;;;;;;;23.42;11.45;;;11.40;99.90;;;;;;4961104;29;20090;-57
2022/06/05 02:34:56;;;;;;;18.77;11.10;;;11.40;99.90;;;;;;4925590;28;20550;-58
2022/06/05 02:37:34;;;;;;;20.50;12.30;;;11.50;99.90;;;;;;4944912;29;20589;-57
2022/06/05 02:40:00;;;;;;;18.88;11.35;;;11.50;99.90;;;;;;4965190;28;20498;-57
2022/06/05 02:42:37;;;;;;;23.40;12.68;;;11.40;99.90;;;;;;4943618;29;20077;-58
2022/06/05 02:45:23;;;;;;;23.52;11.57;;;11.50;99.90;;;;;;4962435;29;20100;-58
2022/06/05 02:48:24;;;;;;;22.20;11.55;;;11.50;99.90;;;;;;4952743;29;20047;-58
2022/06/05 02:51:00;;;;;;;19.17;12.70;;;11.50;99.90;;;;;;4943887;29;20051;-58
2022/06/05 02:53:25;;;;;;;16.92;11.85;;;11.50;99.90;;;;;;4952954;29;20043;-57
2022/06/05 02:55:52;;;;;;;21.27;11.73;;;11.60;99.90;;;;;;4954968;29;20050;-58
2022/06/05 02:58:17;;;;;;;21.67;12.60;;;11.60;99.90;;;;;;4943133;29;20047;-58
2022/06/05 03:03:27;;;;;;;21.95;12.63;;;11.70;99.90;;;;;;4925177;29;20053;-58
2022/06/05 03:03:29;;;;;;;22.00;13.10;;;11.60;99.90;;;;;;4946263;29;20066;-57
2022/06/05 03:05:58;;;;;;;20.45;11.85;;;11.60;99.90;;;;;;4942943;29;20076;-58
2022/06/05 03:08:24;;;;;;;17.92;11.57;;;11.50;99.90;;;;;;4949745;29;20051;-57
2022/06/05 03:10:49;;;;;;;21.45;11.82;;;11.60;99.90;;;;;;4942463;29;20047;-57
2022/06/05 03:13:15;;;;;;;19.38;12.40;;;11.60;99.90;;;;;;4948467;29;20391;-58
2022/06/05 03:15:41;;;;;;;19.27;11.77;;;11.60;99.90;;;;;;4961887;29;20047;-57
2022/06/05 03:18:07;;;;;;;20.00;12.05;;;11.60;99.90;;;;;;4960473;29;20054;-58
2022/06/05 03:20:34;;;;;;;25.35;13.02;;;11.60;99.90;;;;;;4963344;29;20047;-57
2022/06/05 03:23:00;;;;;;;23.38;13.25;;;11.70;99.90;;;;;;4963522;29;20342;-58
2022/06/05 03:25:26;;;;;;;22.95;12.38;;;11.60;99.90;;;;;;4958494;29;20103;-57
2022/06/05 03:27:53;;;;;;;20.88;11.95;;;11.60;99.90;;;;;;4929331;29;20055;-58
2022/06/05 03:30:19;;;;;;;24.15;13.38;;;11.60;99.90;;;;;;4940474;29;20620;-58
2022/06/05 03:32:46;;;;;;;22.05;13.18;;;11.70;99.90;;;;;;4942190;29;20090;-58
2022/06/05 03:35:13;;;;;;;21.30;12.88;;;11.70;99.90;;;;;;4955206;29;20047;-57
2022/06/05 03:37:39;;;;;;;22.52;12.68;;;11.70;99.90;;;;;;4959650;29;20042;-58
2022/06/05 03:40:16;;;;;;;23.17;14.40;;;11.80;99.90;;;;;;4950043;28;20059;-57
2022/06/05 03:42:42;;;;;;;21.83;13.77;;;11.80;99.90;;;;;;4940388;29;20074;-58
2022/06/05 03:45:17;;;;;;;25.75;14.57;;;11.80;99.90;;;;;;4942567;29;20476;-58
2022/06/05 03:47:43;;;;;;;18.65;12.13;;;11.90;99.90;;;;;;4942927;29;20047;-57
2022/06/05 03:50:11;;;;;;;23.67;13.30;;;11.90;99.90;;;;;;4965134;29;20055;-58
2022/06/05 03:52:36;;;;;;;24.98;15.00;;;11.90;99.90;;;;;;4964674;29;20058;-57
2022/06/05 03:55:03;;;;;;;22.52;13.60;;;11.90;99.90;;;;;;4964109;29;20079;-58
2022/06/05 03:57:29;;;;;;;24.35;13.98;;;11.90;99.90;;;;;;4951970;29;20044;-57
2022/06/05 03:59:54;;;;;;;24.30;15.20;;;11.90;99.90;;;;;;4945014;29;20114;-58
2022/06/05 04:02:20;;;;;;;21.83;13.85;;;12.00;99.90;;;;;;4965137;29;20057;-58
2022/06/05 04:04:46;;;;;;;26.25;13.85;;;12.00;99.90;;;;;;4963234;29;20130;-58
2022/06/05 04:07:11;;;;;;;28.02;15.80;;;11.90;99.90;;;;;;4954209;29;20059;-58
2022/06/05 04:09:37;;;;;;;22.58;15.60;;;12.00;99.90;;;;;;4958204;29;20075;-57
2022/06/05 04:12:03;;;;;;;26.38;13.73;;;12.00;99.90;;;;;;4950829;29;20044;-57
2022/06/05 04:14:29;;;;;;;22.92;13.68;;;12.10;99.90;;;;;;4963757;29;20047;-57
2022/06/05 04:16:54;;;;;;;28.58;14.77;;;12.00;99.90;;;;;;4962974;29;20158;-58
2022/06/05 04:19:21;;;;;;;25.52;14.73;;;12.10;99.90;;;;;;4965288;29;20106;-58
2022/06/05 04:21:47;;;;;;;23.17;14.50;;;12.20;99.90;;;;;;4962879;29;20043;-58
2022/06/05 04:24:15;;;;;;;21.77;13.73;;;12.20;99.90;;;;;;4964674;29;20039;-60
2022/06/05 04:26:41;;;;;;;26.02;15.18;;;12.30;99.90;;;;;;4957007;29;20059;-59
2022/06/05 04:29:07;;;;;;;22.52;13.30;;;12.20;99.90;;;;;;4963587;29;20035;-59
2022/06/05 04:31:38;;;;;;;25.05;13.70;;;12.30;99.90;;;;;;4939389;29;20066;-57
2022/06/05 04:34:09;;;;;;;22.20;13.68;;;12.30;99.90;;;;;;4943759;29;20040;-58
2022/06/05 04:36:36;;;;;;;25.90;15.02;;;12.40;99.90;;;;;;4957167;29;20047;-58
2022/06/05 04:39:02;;;;;;;25.13;13.80;;;12.50;99.90;;;;;;4963849;29;20105;-58
2022/06/05 04:41:28;;;;;;;26.55;14.25;;;12.50;99.90;;;;;;4957556;28;20403;-58
2022/06/05 04:43:54;;;;;;;22.58;14.00;;;12.60;99.90;;;;;;4950175;29;20047;-58
2022/06/05 04:46:22;;;;;;;24.00;13.88;;;12.60;99.90;;;;;;4963421;29;20093;-58
2022/06/05 04:48:48;;;;;;;25.90;14.80;;;12.70;99.90;;;;;;4959783;29;20031;-58
2022/06/05 04:51:15;;;;;;;22.92;14.13;;;12.90;99.90;;;;;;4962249;29;20488;-58
2022/06/05 04:53:41;;;;;;;21.25;13.13;;;12.90;99.90;;;;;;4964459;29;20098;-58
2022/06/05 04:56:10;;;;;;;20.63;13.60;;;12.90;99.90;;;;;;4962122;29;20047;-58
2022/06/05 04:58:35;;;;;;;21.70;13.15;;;13.00;99.90;;;;;;4947592;29;20050;-57
2022/06/05 05:01:01;;;;;;;23.98;13.57;;;13.10;99.90;;;;;;4960256;29;20059;-58
2022/06/05 05:03:27;;;;;;;23.73;14.38;;;13.10;99.90;;;;;;4953318;29;20135;-58
2022/06/05 05:05:53;;;;;;;27.27;14.70;;;13.20;99.90;;;;;;4944613;29;20039;-57
2022/06/05 05:08:19;;;;;;;22.08;13.63;;;13.20;99.90;;;;;;4953469;29;20071;-57
2022/06/05 05:10:45;;;;;;;20.83;13.63;;;13.10;99.90;;;;;;4961541;29;20352;-58
2022/06/05 05:13:11;;;;;;;24.65;14.45;;;13.20;99.90;;;;;;4928787;29;20044;-59
2022/06/05 05:15:37;;;;;;;20.70;13.30;;;13.20;99.90;;;;;;4952605;29;20047;-58
2022/06/05 05:18:03;;;;;;;20.75;13.15;;;13.20;99.90;;;;;;4962416;29;20051;-57
2022/06/05 05:20:28;;;;;;;27.00;15.10;;;13.30;99.90;;;;;;4963183;29;20055;-58
2022/06/05 05:22:54;;;;;;;21.70;12.90;;;13.20;99.90;;;;;;4963290;29;20039;-58
2022/06/05 05:25:20;;;;;;;23.90;13.43;;;13.30;99.90;;;;;;4961990;29;20050;-56
2022/06/05 05:27:45;;;;;;;22.88;13.20;;;13.40;99.90;;;;;;4949328;29;20044;-58
2022/06/05 05:30:12;;;;;;;20.23;13.07;;;13.50;99.90;;;;;;4941959;29;20083;-58
2022/06/05 05:32:38;;;;;;;23.33;13.73;;;13.60;99.90;;;;;;4944151;29;20086;-59
2022/06/05 05:35:06;;;;;;;20.58;12.65;;;13.70;99.90;;;;;;4942758;29;20047;-58
2022/06/05 05:37:32;;;;;;;21.75;12.85;;;13.90;99.90;;;;;;4941457;29;20043;-58
2022/06/05 05:42:42;;;;;;;19.42;13.07;;;14.10;99.90;;;;;;4946401;29;20770;-59
2022/06/05 05:45:08;;;;;;;18.40;12.38;;;14.30;99.90;;;;;;4959184;29;20070;-58
2022/06/05 05:47:34;;;;;;;18.90;12.00;;;14.50;99.90;;;;;;4921995;29;20184;-58
2022/06/05 05:50:07;;;;;;;19.90;12.82;;;14.50;99.90;;;;;;4957726;29;20522;-59
2022/06/05 05:52:33;;;;;;;18.40;12.98;;;14.60;99.90;;;;;;4960889;29;20058;-58
2022/06/05 05:54:59;;;;;;;18.73;12.52;;;14.60;99.90;;;;;;4959296;29;20083;-59
2022/06/05 05:57:26;;;;;;;21.30;12.65;;;14.70;99.90;;;;;;4960143;29;20043;-58
2022/06/05 05:59:51;;;;;;;19.55;12.73;;;14.60;99.90;;;;;;4957713;29;20130;-57
2022/06/05 06:02:21;;;;;;;20.38;13.13;;;14.70;99.90;;;;;;4950405;29;20083;-59
2022/06/05 06:04:49;;;;;;;17.17;11.57;;;14.80;99.90;;;;;;4939413;29;20096;-58
2022/06/05 06:07:15;;;;;;;20.73;13.30;;;14.80;99.90;;;;;;4953012;29;20058;-58
2022/06/05 06:09:41;;;;;;;19.27;14.07;;;14.80;99.90;;;;;;4958065;28;20043;-58
2022/06/05 06:12:08;;;;;;;19.85;12.90;;;14.80;99.90;;;;;;4959183;28;20652;-57
2022/06/05 06:14:34;;;;;;;20.95;12.55;;;14.90;99.90;;;;;;4961898;28;20538;-58
2022/06/05 06:17:00;;;;;;;16.77;12.70;;;14.90;99.90;;;;;;4965011;28;20047;-59
2022/06/05 06:19:26;;;;;;;20.30;13.18;;;14.90;99.90;;;;;;4967838;28;20127;-58
2022/06/05 06:21:51;;;;;;;15.93;11.65;;;14.90;99.90;;;;;;4967148;28;20039;-62
2022/06/05 06:24:17;;;;;;;20.27;12.95;;;14.90;99.90;;;;;;4968617;28;20028;-58
2022/06/05 06:26:43;;;;;;;22.23;13.15;;;15.00;99.90;;;;;;4965423;28;20051;-59
2022/06/05 06:29:09;;;;;;;22.05;13.13;;;15.00;99.90;;;;;;4958152;29;20083;-58
2022/06/05 06:31:38;;;;;;;20.38;12.02;;;15.10;99.90;;;;;;4958918;29;20567;-58
2022/06/05 06:34:04;;;;;;;15.57;11.90;;;15.10;99.90;;;;;;4939774;29;20070;-58
2022/06/05 06:36:32;;;;;;;17.90;11.85;;;15.20;99.90;;;;;;4959216;29;20126;-58
2022/06/05 06:38:59;;;;;;;19.13;12.65;;;15.30;99.90;;;;;;4945638;29;20054;-58
2022/06/05 06:41:25;;;;;;;17.08;11.52;;;15.40;99.90;;;;;;4927100;29;20485;-58
2022/06/05 06:43:50;;;;;;;16.05;11.75;;;15.30;99.90;;;;;;4938773;29;20112;-59
2022/06/05 06:46:18;;;;;;;18.52;13.02;;;15.50;99.90;;;;;;4953948;29;20055;-58
2022/06/05 06:48:43;;;;;;;17.73;11.65;;;15.50;99.90;;;;;;4958202;29;20035;-58
2022/06/05 06:51:09;;;;;;;16.30;11.82;;;15.50;99.90;;;;;;4954391;29;20051;-59
2022/06/05 06:53:36;;;;;;;16.80;12.07;;;15.70;99.90;;;;;;4940056;29;20051;-58
2022/06/05 06:56:23;;;;;;;17.67;12.73;;;15.70;99.90;;;;;;4942680;29;20051;-58
2022/06/05 06:58:49;;;;;;;16.67;12.48;;;15.80;99.90;;;;;;4958554;29;20114;-58
2022/06/05 07:01:15;;;;;;;15.80;11.52;;;15.80;99.90;;;;;;4954435;29;20063;-57
2022/06/05 07:03:41;;;;;;;16.30;12.65;;;15.80;99.90;;;;;;4939725;29;20051;-58
2022/06/05 07:06:09;;;;;;;15.15;10.65;;;15.90;99.90;;;;;;4942647;29;20044;-58
2022/06/05 07:08:35;;;;;;;17.08;12.10;;;16.00;99.90;;;;;;4937880;29;20048;-57
2022/06/05 07:11:03;;;;;;;16.55;11.63;;;16.10;99.90;;;;;;4944240;29;20479;-58
2022/06/05 07:13:29;;;;;;;16.55;11.85;;;16.10;99.90;;;;;;4937535;29;20055;-59
2022/06/05 07:15:55;;;;;;;17.08;11.80;;;16.30;99.90;;;;;;4958297;29;20054;-59
2022/06/05 07:18:20;;;;;;;17.55;12.85;;;16.40;99.90;;;;;;4957653;29;20904;-58
2022/06/05 07:20:46;;;;;;;14.50;11.23;;;16.40;99.90;;;;;;4954815;29;20087;-58
2022/06/05 07:23:13;;;;;;;16.05;11.80;;;16.50;99.90;;;;;;4935731;29;20110;-59
2022/06/05 07:25:45;;;;;;;18.55;11.23;;;16.60;99.90;;;;;;4936854;29;20043;-58
2022/06/05 07:28:11;;;;;;;14.95;10.65;;;16.70;99.90;;;;;;4955814;29;20099;-58
2022/06/05 07:30:37;;;;;;;15.50;10.07;;;16.80;99.90;;;;;;4958332;28;20055;-58
2022/06/05 07:33:02;;;;;;;14.55;10.85;;;16.90;99.90;;;;;;4967052;28;20459;-58
2022/06/05 07:35:28;;;;;;;16.65;11.35;;;16.90;99.90;;;;;;4966053;28;20414;-58
2022/06/05 07:37:54;;;;;;;15.18;11.07;;;17.00;99.90;;;;;;4948702;28;20463;-58
2022/06/05 07:40:20;;;;;;;18.73;12.07;;;17.20;99.90;;;;;;4966756;28;20043;-58
2022/06/05 07:42:46;;;;;;;16.58;11.10;;;17.30;99.90;;;;;;4971975;28;20072;-59
2022/06/05 07:45:15;;;;;;;14.75;11.07;;;17.40;99.90;;;;;;4966399;28;20146;-59
2022/06/05 07:47:44;;;;;;;15.30;10.38;;;17.50;99.90;;;;;;4956796;29;20035;-58
2022/06/05 07:50:13;;;;;;;13.50;9.93;;;17.60;99.90;;;;;;4957016;29;20055;-58
2022/06/05 07:55:24;;;;;;;13.98;8.70;;;17.80;99.90;;;;;;4954194;29;20057;-58
2022/06/05 07:57:50;;;;;;;12.13;9.65;;;17.90;99.90;;;;;;4944147;29;20047;-58
2022/06/05 08:00:16;;;;;;;12.23;9.45;;;17.90;99.90;;;;;;4955981;29;20054;-58
2022/06/05 08:02:42;;;;;;;12.80;9.25;;;17.90;99.90;;;;;;4958014;29;20050;-59
2022/06/05 08:05:09;;;;;;;12.10;9.35;;;17.90;99.90;;;;;;4958228;28;20047;-58
2022/06/05 08:07:35;;;;;;;14.60;9.75;;;18.00;99.90;;;;;;4948414;28;20337;-58
2022/06/05 08:10:04;;;;;;;13.43;8.93;;;18.00;99.90;;;;;;4967497;28;20085;-59
2022/06/05 08:12:32;;;;;;;10.82;8.55;;;18.10;99.90;;;;;;4963023;28;20065;-59
2022/06/05 08:14:58;;;;;;;13.25;9.48;;;18.10;99.90;;;;;;4968587;28;20135;-58
2022/06/05 08:17:27;;;;;;;14.07;10.13;;;18.10;99.90;;;;;;4947311;28;20051;-58
2022/06/05 08:19:53;;;;;;;14.50;10.48;;;18.10;99.90;;;;;;4970211;28;20047;-59
2022/06/05 08:22:22;;;;;;;12.85;9.27;;;18.10;99.90;;;;;;4962808;28;20047;-58
2022/06/05 08:24:48;;;;;;;13.43;9.00;;;18.20;99.90;;;;;;4967046;28;20055;-59
2022/06/05 08:27:16;;;;;;;13.65;9.05;;;18.20;99.90;;;;;;4967275;28;20031;-58
2022/06/05 08:29:43;;;;;;;12.52;9.13;;;18.30;99.90;;;;;;4961263;28;20082;-58
2022/06/05 08:32:10;;;;;;;12.93;8.80;;;18.40;99.90;;;;;;4967380;28;20054;-58
2022/06/05 08:34:35;;;;;;;12.93;9.25;;;18.50;99.90;;;;;;4968631;28;20035;-58
2022/06/05 08:42:41;;;;;;;15.38;10.38;;;18.60;99.90;;;;;;4953670;29;20039;-61
2022/06/05 08:45:26;;;;;;;14.15;9.63;;;18.60;99.90;;;;;;4963705;28;20050;-58
2022/06/05 08:47:58;;;;;;;11.18;8.65;;;18.70;99.90;;;;;;4940356;29;20486;-59
2022/06/05 08:50:30;;;;;;;;;;;18.80;99.90;;;;;;4959579;29;20043;-59
2022/06/05 08:53:08;;;;;;;20.23;9.88;;;18.90;99.90;;;;;;4960964;29;19953;-59
2022/06/05 08:55:38;;;;;;;12.13;9.20;;;18.90;99.90;;;;;;4959104;29;20471;-59
2022/06/05 08:58:32;;;;;;;12.02;9.88;;;19.00;99.90;;;;;;4960802;29;20039;-59
2022/06/05 09:01:18;;;;;;;12.80;8.85;;;19.00;99.90;;;;;;4954940;29;20142;-58
2022/06/05 09:04:20;;;;;;;13.05;9.35;;;19.20;99.90;;;;;;4958662;29;20121;-56
2022/06/05 09:06:52;;;;;;;12.40;9.10;;;19.20;99.90;;;;;;4933535;29;20560;-59
2022/06/05 09:09:37;;;;;;;12.60;9.50;;;19.40;99.90;;;;;;4959360;29;20070;-58
2022/06/05 09:12:11;;;;;;;13.32;8.82;;;19.40;99.90;;;;;;4945962;29;20087;-55
2022/06/05 09:14:51;;;;;;;12.18;8.48;;;19.60;99.90;;;;;;4949277;29;20035;-59
2022/06/05 09:17:19;;;;;;;12.05;8.70;;;19.70;99.90;;;;;;4958619;29;20047;-58
2022/06/05 09:19:48;;;;;;;13.85;8.95;;;19.70;99.90;;;;;;4960523;29;20046;-58
2022/06/05 09:22:18;;;;;;;12.43;8.65;;;19.90;99.90;;;;;;4959021;29;20066;-59
2022/06/05 09:24:53;;;;;;;11.77;9.07;;;19.90;99.90;;;;;;4959471;29;20070;-58
2022/06/05 09:27:33;;;;;;;11.98;8.52;;;19.90;99.90;;;;;;4957639;29;20059;-58
2022/06/05 09:30:06;;;;;;;10.75;8.50;;;19.90;99.90;;;;;;4958080;29;20126;-59
2022/06/05 09:32:51;;;;;;;10.85;8.50;;;20.00;99.90;;;;;;4948031;29;20056;-59
2022/06/05 09:35:25;;;;;;;11.93;8.60;;;20.10;99.90;;;;;;4943197;29;20056;-59
2022/06/05 09:37:53;;;;;;;13.10;8.52;;;20.10;99.90;;;;;;4958611;29;20057;-59
2022/06/05 09:40:28;;;;;;;12.20;8.77;;;20.10;99.90;;;;;;4968205;28;20121;-59
2022/06/05 09:43:00;;;;;;;11.48;7.97;;;20.10;99.90;;;;;;4950818;29;20047;-59
2022/06/05 09:45:47;;;;;;;11.63;8.32;;;20.30;99.90;;;;;;4941788;29;20078;-59
2022/06/05 09:48:52;;;;;;;10.80;7.88;;;20.30;99.90;;;;;;4946980;28;20039;-59
2022/06/05 09:51:19;;;;;;;11.73;8.10;;;20.30;99.90;;;;;;4966275;28;20047;-59
2022/06/05 09:54:12;;;;;;;12.18;8.65;;;20.50;99.90;;;;;;4950201;29;20051;-59
2022/06/05 09:59:34;;;;;;;10.90;7.60;;;20.70;99.90;;;;;;4940561;29;20056;-59
2022/06/05 10:02:02;;;;;;;12.48;8.57;;;20.70;99.90;;;;;;4959873;29;20055;-59
2022/06/05 10:04:30;;;;;;;10.95;8.00;;;20.80;99.90;;;;;;4939835;29;20040;-59
2022/06/05 10:07:06;;;;;;;10.35;7.75;;;20.80;99.90;;;;;;4943533;29;20111;-59
2022/06/05 10:09:34;;;;;;;11.93;7.93;;;20.90;99.90;;;;;;4958116;29;20055;-59
2022/06/05 10:12:10;;;;;;;12.20;8.32;;;21.00;99.90;;;;;;4948165;29;20117;-59
2022/06/05 10:14:44;;;;;;;12.05;7.88;;;21.00;99.90;;;;;;4942725;29;20051;-61
2022/06/05 10:17:47;;;;;;;12.45;7.95;;;21.00;99.90;;;;;;4938336;29;20403;-59
2022/06/05 10:20:13;;;;;;;10.07;7.78;;;21.10;99.90;;;;;;4939978;29;20056;-59
2022/06/05 10:23:03;;;;;;;12.60;7.25;;;21.10;99.90;;;;;;4952826;29;20086;-59
2022/06/05 10:25:57;;;;;;;9.70;6.82;;;21.20;99.90;;;;;;4957227;29;20053;-59
2022/06/05 10:28:30;;;;;;;10.10;7.65;;;21.30;99.90;;;;;;4959370;29;20106;-59
2022/06/05 10:31:03;;;;;;;10.43;7.78;;;21.40;99.90;;;;;;4957413;29;20055;-58
2022/06/05 10:34:03;;;;;;;12.05;8.43;;;21.40;99.90;;;;;;4948793;29;20055;-59
2022/06/05 10:36:55;;;;;;;10.30;7.57;;;21.40;99.90;;;;;;4959068;29;20054;-59
2022/06/05 10:39:58;;;;;;;11.30;6.88;;;21.60;99.90;;;;;;4902680;28;20101;-59
2022/06/05 10:42:39;;;;;;;9.95;7.43;;;21.70;99.90;;;;;;4951982;28;20043;-59
2022/06/05 10:45:04;;;;;;;10.98;7.05;;;21.70;99.90;;;;;;4967284;28;20615;-59
2022/06/05 10:47:42;;;;;;;10.07;7.30;;;21.70;99.90;;;;;;4966796;28;20040;-58
2022/06/05 10:50:10;;;;;;;9.57;7.00;;;21.70;99.90;;;;;;4969242;28;20061;-59
2022/06/05 10:52:54;;;;;;;10.07;6.82;;;21.80;99.90;;;;;;4967352;28;20376;-59
2022/06/05 11:10:18;;;;;;;9.85;5.82;;;22.10;99.90;;;;;;5228915;23;20447;-57
2022/06/05 11:16:24;;;;;;;10.50;6.65;;;22.00;99.90;;;;;;5018211;28;20053;-58
2022/06/05 11:19:14;;;;;;;9.38;6.63;;;22.10;99.90;;;;;;5017703;28;20037;-58
2022/06/05 11:21:43;;;;;;;10.73;6.45;;;22.10;99.90;;;;;;5002870;28;20046;-58
2022/06/05 11:24:27;;;;;;;9.40;6.70;;;22.10;99.90;;;;;;5016224;28;20053;-58
2022/06/05 11:27:11;;;;;;;8.75;6.55;;;22.10;99.90;;;;;;4996231;28;20050;-58
2022/06/05 11:29:42;;;;;;;11.98;6.38;;;22.00;99.90;;;;;;5000630;28;20049;-58
2022/06/05 11:32:16;;;;;;;10.37;6.40;;;22.10;99.90;;;;;;5018014;28;20042;-58
2022/06/05 11:35:12;;;;;;;9.13;6.57;;;22.10;99.90;;;;;;4998075;28;20050;-58
2022/06/05 11:37:45;;;;;;;10.30;6.90;;;22.10;99.90;;;;;;5017427;28;20053;-58
2022/06/05 11:40:20;;;;;;;9.43;6.28;;;22.10;99.90;;;;;;4997738;28;20062;-58
2022/06/05 11:43:16;;;;;;;8.80;5.95;;;22.10;99.90;;;;;;5002305;28;20030;-58
2022/06/05 11:46:07;;;;;;;9.48;6.10;;;22.10;99.90;;;;;;5002155;28;20563;-58
2022/06/05 11:48:38;;;;;;;9.70;6.28;;;22.20;99.90;;;;;;4990501;28;20061;-58
2022/06/05 11:51:21;;;;;;;9.82;6.25;;;22.20;99.90;;;;;;4998488;28;20065;-58
2022/06/05 11:54:06;;;;;;;9.52;6.50;;;22.20;99.90;;;;;;5002590;28;20050;-55
2022/06/05 11:56:48;;;;;;;9.93;6.28;;;22.20;99.90;;;;;;4999110;28;20462;-59
2022/06/05 11:59:30;;;;;;;10.95;6.40;;;22.30;99.90;;;;;;5017733;28;20041;-58
2022/06/05 12:02:24;;;;;;;10.43;6.13;;;22.30;99.90;;;;;;4998754;28;20058;-59
2022/06/05 12:04:56;;;;;;;10.55;7.55;;;22.20;99.90;;;;;;5017050;28;20046;-59
2022/06/05 12:07:25;;;;;;;9.38;6.35;;;22.30;99.90;;;;;;5000808;28;20054;-59
2022/06/05 12:09:55;;;;;;;9.30;6.50;;;22.40;99.90;;;;;;5018937;28;20061;-59
2022/06/05 12:12:34;;;;;;;9.18;6.78;;;22.40;99.90;;;;;;5003932;28;20054;-58
2022/06/05 12:15:33;;;;;;;9.63;6.07;;;22.40;99.90;;;;;;5005242;28;20054;-58
2022/06/05 12:18:05;;;;;;;9.18;6.22;;;22.50;99.90;;;;;;5017220;28;20054;-59
2022/06/05 12:20:50;;;;;;;9.32;6.03;;;22.50;99.90;;;;;;5018255;28;20049;-59
2022/06/05 12:23:19;;;;;;;10.60;6.28;;;22.60;99.90;;;;;;5016736;28;20076;-59
2022/06/05 12:25:53;;;;;;;8.35;6.05;;;22.60;99.90;;;;;;5019477;28;20076;-59
2022/06/05 12:28:39;;;;;;;8.95;5.78;;;22.70;99.90;;;;;;5018660;28;20045;-58
2022/06/05 12:31:17;;;;;;;8.82;6.15;;;22.80;99.90;;;;;;5018416;28;20119;-59
2022/06/05 12:34:21;;;;;;;8.80;5.75;;;22.80;99.90;;;;;;5018842;28;20052;-59
2022/06/05 12:36:55;;;;;;;9.73;7.40;;;22.90;99.90;;;;;;4939698;29;20051;-58
2022/06/05 12:39:34;;;;;;;9.80;5.82;;;22.80;99.90;;;;;;5008060;28;20053;-59
2022/06/05 12:42:04;;;;;;;7.60;5.72;;;22.90;99.90;;;;;;5020059;28;20657;-59
2022/06/05 12:44:41;;;;;;;8.57;5.73;;;22.90;99.90;;;;;;5013392;28;20052;-59
2022/06/05 12:47:18;;;;;;;8.57;6.38;;;23.00;99.90;;;;;;5007260;28;20116;-59
2022/06/05 12:49:53;;;;;;;10.88;5.60;;;23.00;99.90;;;;;;5020036;28;20088;-58
2022/06/05 12:52:41;;;;;;;10.35;5.85;;;23.00;99.90;;;;;;5018627;28;20054;-58
2022/06/05 12:55:45;;;;;;;7.88;5.38;;;23.00;99.90;;;;;;5006901;28;20050;-58
2022/06/05 12:58:20;;;;;;;10.93;6.13;;;23.00;99.90;;;;;;4950239;28;20066;-58
2022/06/05 13:00:57;;;;;;;13.02;5.85;;;23.00;99.90;;;;;;4998971;28;20516;-58
2022/06/05 13:03:44;;;;;;;8.95;5.65;;;23.00;99.90;;;;;;5010909;28;20101;-58
2022/06/05 13:06:22;;;;;;;9.63;5.60;;;23.10;99.90;;;;;;4981823;28;20085;-58
2022/06/05 13:08:59;;;;;;;8.10;5.57;;;23.00;99.90;;;;;;4999414;28;20046;-58
2022/06/05 13:11:36;;;;;;;8.50;6.35;;;23.00;99.90;;;;;;4999963;28;20114;-58
2022/06/05 13:14:14;;;;;;;9.30;5.47;;;22.90;99.90;;;;;;5002604;28;20057;-58
2022/06/05 13:16:58;;;;;;;9.02;5.68;;;22.90;99.90;;;;;;5019906;28;20069;-58
2022/06/05 13:19:23;;;;;;;8.82;5.95;;;22.90;99.90;;;;;;5018335;28;20160;-59
2022/06/05 13:22:01;;;;;;;9.07;6.60;;;22.80;99.90;;;;;;5018121;28;20042;-58
2022/06/05 13:24:50;;;;;;;8.85;5.30;;;22.80;99.90;;;;;;5019839;28;20096;-58
2022/06/05 13:27:28;;;;;;;8.35;5.82;;;22.80;99.90;;;;;;5002945;28;20061;-58
2022/06/05 13:30:03;;;;;;;8.55;6.13;;;22.80;99.90;;;;;;5018631;28;20572;-58
2022/06/05 13:32:44;;;;;;;7.75;5.28;;;22.80;99.90;;;;;;5017994;28;20034;-58
2022/06/05 13:35:53;;;;;;;7.40;5.73;;;22.80;99.90;;;;;;5016165;28;20077;-58